Terminal Aerodrome Forecast
Issued by NWS Spokane, WA

Home | Current Version | Previous Version | Text Only | Print | Product List | Glossary On
Versions: 1 2 3 4 5 6 7 8 9 10 11 12 13 14 15 16 17
000
FTUS46 KOTX 201729
TAFGEG
TAF
KGEG 201729Z 2018/2118 21012KT P6SM FEW030 SCT080 SCT250
     FM210200 16004KT P6SM SCT100 BKN150
     FM211300 09005KT P6SM BKN100 OVC150
     FM211700 07007KT P6SM BKN060 OVC100=

USA.gov is the U.S. government's official web portal to all federal, state and local government web resources and services.